createdAt,value
2019-01-21T00:00:36.344Z,46.40
2019-01-21T00:03:05.896Z,43.55
2019-01-21T00:05:34.653Z,40.92
2019-01-21T00:08:03.568Z,49.53
2019-01-21T00:10:32.634Z,45.08
2019-01-21T00:13:01.409Z,43.48
2019-01-21T00:15:30.178Z,41.55
2019-01-21T00:17:58.964Z,39.13
2019-01-21T00:20:27.779Z,44.67
2019-01-21T00:22:56.861Z,45.03
2019-01-21T00:25:25.669Z,45.10
2019-01-21T00:27:54.431Z,45.15
2019-01-21T00:30:23.184Z,42.03
2019-01-21T00:32:51.956Z,48.17
2019-01-21T00:35:22.679Z,48.70
2019-01-21T00:37:51.584Z,50.43
2019-01-21T00:40:20.421Z,45.08
2019-01-21T00:42:49.213Z,41.45
2019-01-21T00:45:18.144Z,51.68
2019-01-21T00:47:47.013Z,46.80
2019-01-21T00:50:16.700Z,47.15
2019-01-21T00:52:45.590Z,48.15
2019-01-21T00:55:14.515Z,47.23
2019-01-21T00:57:43.607Z,46.35
2019-01-21T01:00:18.031Z,45.15
2019-01-21T01:02:46.975Z,43.55
2019-01-21T01:05:17.505Z,39.25
2019-01-21T01:07:46.299Z,43.80
2019-01-21T01:10:15.247Z,44.80
2019-01-21T01:12:44.034Z,50.85
2019-01-21T01:15:15.057Z,45.05
2019-01-21T01:17:43.888Z,44.20
2019-01-21T01:20:19.711Z,53.02
2019-01-21T01:22:48.588Z,53.83
2019-01-21T01:25:17.424Z,51.85
2019-01-21T01:27:46.247Z,51.20
2019-01-21T01:30:16.410Z,51.55
2019-01-21T01:32:45.273Z,51.48
2019-01-21T01:35:15.408Z,50.52
2019-01-21T01:37:44.471Z,50.92
2019-01-21T01:40:15.246Z,52.05
2019-01-21T01:42:44.146Z,51.10
2019-01-21T01:45:19.514Z,45.60
2019-01-21T01:47:48.439Z,45.05
2019-01-21T01:50:17.270Z,47.90
2019-01-21T01:52:46.094Z,53.28
2019-01-21T01:55:14.949Z,45.83
2019-01-21T01:57:44.071Z,45.60
2019-01-21T02:00:15.011Z,52.55
2019-01-21T02:02:43.769Z,46.60
2019-01-21T02:05:12.736Z,45.80
2019-01-21T02:07:41.532Z,45.08
2019-01-21T02:10:12.544Z,45.23
2019-01-21T02:12:41.384Z,40.33
2019-01-21T02:15:12.170Z,44.05
2019-01-21T02:17:40.935Z,50.90
2019-01-21T02:20:18.510Z,43.05
2019-01-21T02:22:51.400Z,39.33
2019-01-21T02:25:22.483Z,40.23
2019-01-21T02:27:57.297Z,47.88
2019-01-21T02:30:38.250Z,44.58
2019-01-21T02:33:25.057Z,35.85
2019-01-21T02:35:56.957Z,35.52
2019-01-21T02:38:46.683Z,38.10
2019-01-21T02:41:21.525Z,38.95
2019-01-21T02:43:58.900Z,48.15
2019-01-21T02:46:39.588Z,40.40
2019-01-21T02:49:20.138Z,40.65
2019-01-21T02:52:12.942Z,48.33
2019-01-21T02:54:56.689Z,46.20
2019-01-21T02:57:49.190Z,41.35
2019-01-21T03:00:35.514Z,41.75
2019-01-21T03:03:10.362Z,44.73
2019-01-21T03:05:50.788Z,45.45
2019-01-21T03:08:50.966Z,38.95
2019-01-21T03:11:52.838Z,41.68
2019-01-21T03:14:42.349Z,45.98
2019-01-21T03:17:32.210Z,43.33
2019-01-21T03:20:06.441Z,49.88
2019-01-21T03:22:44.139Z,47.40
2019-01-21T03:25:15.980Z,45.20
2019-01-21T03:27:53.913Z,48.48
2019-01-21T03:30:52.620Z,41.50
2019-01-21T03:33:26.731Z,52.33
2019-01-21T03:36:06.737Z,49.23
2019-01-21T03:38:54.875Z,52.67
2019-01-21T03:41:32.360Z,53.15
2019-01-21T03:44:32.792Z,46.28
2019-01-21T03:47:04.636Z,47.60
2019-01-21T03:49:39.308Z,45.00
2019-01-21T03:52:36.645Z,49.63
2019-01-21T03:55:08.513Z,50.05
2019-01-21T03:58:01.476Z,45.00
2019-01-21T04:00:36.110Z,45.98
2019-01-21T04:03:19.726Z,51.05
2019-01-21T04:05:51.681Z,41.65
2019-01-21T04:08:26.753Z,44.77
2019-01-21T04:10:58.688Z,51.20
2019-01-21T04:13:33.353Z,53.25
2019-01-21T04:16:20.149Z,49.88
2019-01-21T04:18:52.057Z,51.83
2019-01-21T04:21:46.191Z,43.87
2019-01-21T04:24:37.309Z,48.90
2019-01-21T04:27:18.004Z,49.08
2019-01-21T04:30:12.338Z,52.80
2019-01-21T04:33:03.993Z,58.75
2019-01-21T04:35:47.893Z,54.85
2019-01-21T04:38:36.223Z,44.13
2019-01-21T04:41:27.496Z,53.50
2019-01-21T04:43:59.346Z,51.85
2019-01-21T04:46:42.882Z,52.10
2019-01-21T04:49:23.838Z,54.80
2019-01-21T04:52:01.245Z,59.60
2019-01-21T04:54:33.169Z,49.75
2019-01-21T04:57:21.718Z,48.60
2019-01-21T05:00:05.421Z,53.75
2019-01-21T05:02:42.940Z,260.98
2019-01-21T05:05:26.623Z,52.08
2019-01-21T05:08:10.175Z,60.12
2019-01-21T05:10:57.029Z,55.10
2019-01-21T05:13:43.642Z,51.68
2019-01-21T05:16:27.321Z,65.12
2019-01-21T05:19:01.912Z,60.23
2019-01-21T05:21:50.091Z,52.40
2019-01-21T05:24:28.101Z,54.70
2019-01-21T05:26:59.933Z,47.65
2019-01-21T05:29:46.576Z,51.50
2019-01-21T05:32:36.778Z,54.20
2019-01-21T05:35:31.034Z,54.18
2019-01-21T05:38:03.185Z,51.80
2019-01-21T05:40:44.130Z,56.08
2019-01-21T05:43:19.003Z,61.88
2019-01-21T05:45:54.025Z,51.75
2019-01-21T05:48:28.877Z,48.65
2019-01-21T05:51:12.617Z,55.90
2019-01-21T05:54:12.812Z,53.13
2019-01-21T05:57:13.081Z,51.75
2019-01-21T05:59:50.645Z,54.00
2019-01-21T06:02:25.337Z,60.52
2019-01-21T06:05:11.986Z,57.05
2019-01-21T06:07:58.900Z,62.93
2019-01-21T06:10:33.313Z,59.33
2019-01-21T06:13:16.747Z,55.10
2019-01-21T06:16:00.215Z,51.53
2019-01-21T06:18:34.813Z,60.43
2019-01-21T06:21:21.670Z,45.23
2019-01-21T06:24:05.369Z,53.95
2019-01-21T06:26:53.792Z,59.80
2019-01-21T06:29:31.455Z,65.45
2019-01-21T06:32:34.605Z,58.68
2019-01-21T06:35:18.148Z,62.27
2019-01-21T06:37:52.912Z,57.08
2019-01-21T06:40:42.749Z,60.63
2019-01-21T06:43:50.595Z,59.35
2019-01-21T06:46:31.329Z,59.27
2019-01-21T06:49:09.122Z,51.83
2019-01-21T06:51:47.025Z,58.25
2019-01-21T06:54:24.870Z,62.38
2019-01-21T06:57:05.453Z,60.58
2019-01-21T06:59:53.349Z,56.37
2019-01-21T07:02:37.061Z,56.98
2019-01-21T07:05:20.689Z,62.62
2019-01-21T07:08:10.761Z,59.25
2019-01-21T07:11:03.337Z,57.50
2019-01-21T07:14:09.693Z,57.73
2019-01-21T07:16:44.551Z,57.13
2019-01-21T07:19:28.217Z,60.25
2019-01-21T07:22:15.338Z,57.40
2019-01-21T07:25:05.304Z,51.37
2019-01-21T07:27:54.896Z,49.03
2019-01-21T07:30:29.390Z,56.83
2019-01-21T07:33:09.866Z,46.92
2019-01-21T07:36:16.093Z,49.98
2019-01-21T07:38:47.940Z,65.00
2019-01-21T07:41:19.769Z,51.28
2019-01-21T07:43:51.606Z,57.58
2019-01-21T07:46:23.448Z,68.52
2019-01-21T07:48:55.380Z,54.95
2019-01-21T07:51:53.908Z,52.53
2019-01-21T07:54:33.935Z,49.90
2019-01-21T07:57:05.797Z,56.28
2019-01-21T07:59:46.281Z,55.25
2019-01-21T08:02:40.573Z,51.75
2019-01-21T08:05:21.440Z,57.03
2019-01-21T08:07:53.334Z,57.88
2019-01-21T08:10:44.609Z,58.68
2019-01-21T08:13:16.533Z,50.28
2019-01-21T08:15:51.042Z,53.80
2019-01-21T08:18:43.720Z,58.73
2019-01-21T08:21:32.054Z,49.77
2019-01-21T08:24:06.880Z,53.68
2019-01-21T08:26:38.740Z,57.60
2019-01-21T08:29:22.409Z,61.05
2019-01-21T08:31:54.291Z,64.40
2019-01-21T08:34:34.744Z,61.02
2019-01-21T08:37:33.680Z,49.80
2019-01-21T08:40:24.589Z,48.45
2019-01-21T08:42:59.116Z,60.33
2019-01-21T08:45:30.941Z,55.92
2019-01-21T08:48:08.618Z,54.05
2019-01-21T08:50:43.133Z,60.40
2019-01-21T08:53:29.857Z,55.98
2019-01-21T08:56:07.292Z,58.60
2019-01-21T08:58:50.894Z,56.25
2019-01-21T09:01:40.345Z,54.00
2019-01-21T09:04:31.690Z,63.40
2019-01-21T09:07:09.175Z,55.23
2019-01-21T09:09:55.927Z,53.48
2019-01-21T09:12:36.659Z,52.67
2019-01-21T09:15:23.458Z,62.05
2019-01-21T09:18:24.024Z,51.75
2019-01-21T09:21:13.744Z,56.63
2019-01-21T09:24:00.543Z,60.17
2019-01-21T09:26:44.414Z,65.87
2019-01-21T09:29:26.823Z,66.12
2019-01-21T09:32:04.479Z,66.75
2019-01-21T09:34:56.524Z,71.57
2019-01-21T09:37:28.357Z,59.55
2019-01-21T09:40:02.687Z,62.38
2019-01-21T09:42:50.887Z,59.98
2019-01-21T09:45:38.936Z,68.30
2019-01-21T09:48:06.662Z,63.78
2019-01-21T09:50:35.797Z,60.08
2019-01-21T09:53:06.000Z,60.33
2019-01-21T09:55:34.759Z,60.45
2019-01-21T09:58:08.594Z,66.72
2019-01-21T10:00:37.365Z,65.78
2019-01-21T10:03:06.284Z,57.23
2019-01-21T10:05:36.803Z,59.53
2019-01-21T10:08:11.329Z,61.45
2019-01-21T10:10:46.201Z,56.83
2019-01-21T10:13:20.471Z,51.33
2019-01-21T10:16:13.226Z,68.60
2019-01-21T10:18:47.905Z,67.10
2019-01-21T10:21:19.927Z,64.32
2019-01-21T10:24:21.557Z,63.40
2019-01-21T10:27:09.585Z,71.82
2019-01-21T10:30:03.736Z,73.02
2019-01-21T10:33:02.497Z,68.17
2019-01-21T10:35:39.998Z,59.60
2019-01-21T10:38:19.995Z,65.83
2019-01-21T10:41:09.512Z,72.32
2019-01-21T10:43:47.353Z,62.58
2019-01-21T10:46:21.784Z,57.53
2019-01-21T10:49:11.283Z,77.00
2019-01-21T10:51:59.363Z,69.15
2019-01-21T10:54:39.835Z,70.70
2019-01-21T10:57:26.526Z,64.75
2019-01-21T11:00:10.127Z,75.70
2019-01-21T11:02:56.956Z,59.05
2019-01-21T11:05:28.914Z,73.33
2019-01-21T11:08:03.414Z,48.63
2019-01-21T11:10:51.396Z,46.42
2019-01-21T11:13:44.370Z,62.93
2019-01-21T11:16:19.131Z,63.42
2019-01-21T11:19:02.628Z,70.08
2019-01-21T11:21:34.466Z,70.52
2019-01-21T11:24:17.959Z,66.97
2019-01-21T11:27:07.600Z,68.30
2019-01-21T11:29:51.014Z,42.98
2019-01-21T11:32:34.520Z,63.80
2019-01-21T11:35:09.135Z,70.08
2019-01-21T11:37:50.176Z,67.35
2019-01-21T11:40:24.685Z,69.80
2019-01-21T11:43:12.798Z,64.37
2019-01-21T11:45:44.937Z,74.07
2019-01-21T11:48:31.624Z,76.02
2019-01-21T11:51:37.625Z,65.62
2019-01-21T11:54:21.089Z,60.08
2019-01-21T11:56:58.555Z,63.65
2019-01-21T11:59:36.406Z,53.95
2019-01-21T12:02:08.252Z,64.20
2019-01-21T12:05:08.525Z,67.12
2019-01-21T12:07:54.823Z,66.33
2019-01-21T12:10:46.184Z,72.20
2019-01-21T12:13:43.329Z,61.08
2019-01-21T12:16:34.566Z,64.15
2019-01-21T12:19:22.666Z,58.70
2019-01-21T12:22:06.409Z,60.43
2019-01-21T12:24:35.820Z,61.30
2019-01-21T12:27:23.829Z,60.67
2019-01-21T12:29:58.210Z,60.33
2019-01-21T12:32:41.229Z,53.83
2019-01-21T12:35:27.953Z,50.30
2019-01-21T12:38:20.472Z,61.80
2019-01-21T12:40:57.855Z,53.08
2019-01-21T12:43:38.706Z,40.63
2019-01-21T12:46:25.357Z,56.10
2019-01-21T12:48:57.453Z,51.75
2019-01-21T12:51:31.997Z,52.58
2019-01-21T12:54:04.111Z,53.08
2019-01-21T12:56:44.667Z,57.20
2019-01-21T12:59:31.238Z,50.45
2019-01-21T13:02:28.549Z,52.23
2019-01-21T13:05:00.390Z,52.70
2019-01-21T13:07:37.934Z,50.20
2019-01-21T13:10:25.921Z,52.30
2019-01-21T13:13:24.481Z,49.13
2019-01-21T13:16:11.155Z,54.88
2019-01-21T13:19:00.200Z,51.35
2019-01-21T13:21:48.556Z,49.75
2019-01-21T13:24:22.979Z,49.38
2019-01-21T13:27:00.316Z,56.28
2019-01-21T13:29:34.857Z,31.57
2019-01-21T13:32:18.362Z,57.20
2019-01-21T13:35:18.677Z,53.80
2019-01-21T13:38:02.161Z,51.20
2019-01-21T13:40:36.720Z,54.20
2019-01-21T13:43:28.793Z,50.17
2019-01-21T13:46:26.144Z,66.07
2019-01-21T13:49:09.713Z,54.45
2019-01-21T13:52:03.591Z,45.00
2019-01-21T13:54:38.399Z,51.05
2019-01-21T13:57:10.224Z,54.13
2019-01-21T13:59:52.120Z,50.28
2019-01-21T14:02:29.896Z,63.58
2019-01-21T14:05:04.674Z,55.65
2019-01-21T14:07:51.334Z,51.00
2019-01-21T14:10:28.819Z,43.92
2019-01-21T14:13:12.840Z,56.85
2019-01-21T14:15:50.320Z,50.60
2019-01-21T14:18:28.178Z,48.00
2019-01-21T14:21:00.041Z,54.25
2019-01-21T14:23:34.649Z,56.33
2019-01-21T14:26:13.089Z,58.05
2019-01-21T14:28:51.145Z,56.53
2019-01-21T14:31:40.514Z,62.73
2019-01-21T14:34:18.153Z,60.20
2019-01-21T14:36:52.629Z,44.35
2019-01-21T14:39:27.462Z,53.78
2019-01-21T14:42:22.245Z,52.03
2019-01-21T14:45:11.994Z,31.62
2019-01-21T14:47:49.599Z,67.45
2019-01-21T14:50:27.344Z,50.85
2019-01-21T14:53:13.969Z,51.70
2019-01-21T14:55:48.749Z,52.85
2019-01-21T14:58:28.753Z,52.30
2019-01-21T15:01:06.243Z,56.40
2019-01-21T15:03:53.575Z,53.05
2019-01-21T15:06:31.206Z,53.28
2019-01-21T15:09:11.909Z,61.30
2019-01-21T15:11:43.953Z,59.38
2019-01-21T15:14:21.495Z,58.42
2019-01-21T15:17:04.746Z,65.15
2019-01-21T15:19:35.964Z,65.80
2019-01-21T15:22:31.675Z,43.30
2019-01-21T15:25:20.500Z,56.40
2019-01-21T15:28:11.853Z,48.92
2019-01-21T15:30:43.774Z,62.17
2019-01-21T15:33:17.255Z,51.25
2019-01-21T15:35:51.791Z,61.75
2019-01-21T15:38:42.071Z,60.67
2019-01-21T15:41:25.805Z,70.67
2019-01-21T15:44:09.504Z,60.15
2019-01-21T15:46:50.693Z,54.70
2019-01-21T15:49:34.790Z,61.95
2019-01-21T15:52:09.774Z,70.12
2019-01-21T15:54:50.385Z,65.57
2019-01-21T15:57:46.417Z,63.40
2019-01-21T16:00:21.269Z,70.22
2019-01-21T16:03:02.045Z,63.52
2019-01-21T16:05:36.544Z,65.17
2019-01-21T16:08:08.559Z,66.65
2019-01-21T16:10:52.602Z,57.23
2019-01-21T16:13:42.998Z,65.20
2019-01-21T16:16:29.704Z,62.62
2019-01-21T16:19:01.971Z,66.45
2019-01-21T16:21:54.110Z,68.80
2019-01-21T16:24:32.117Z,66.37
2019-01-21T16:27:07.090Z,70.75
2019-01-21T16:29:54.880Z,65.72
2019-01-21T17:02:28.819Z,68.57
2019-01-21T17:38:13.013Z,69.82
2019-01-21T17:40:54.413Z,77.30
2019-01-21T18:07:28.577Z,77.35
2019-01-21T18:10:09.193Z,78.22
2019-01-21T18:39:45.953Z,89.85
2019-01-21T18:54:27.134Z,78.62
2019-01-21T18:57:08.862Z,79.12
2019-01-21T18:59:50.390Z,98.12
2019-01-21T19:02:31.619Z,79.37
2019-01-21T19:32:09.834Z,68.25
2019-01-21T19:34:39.895Z,83.37
2019-01-21T19:37:27.718Z,102.25
2019-01-21T19:40:15.545Z,98.05
2019-01-21T19:43:03.371Z,99.75
2019-01-21T19:45:51.255Z,82.17
2019-01-21T19:48:39.057Z,105.75
2019-01-21T19:51:26.857Z,87.97
2019-01-21T19:54:14.665Z,95.70
2019-01-21T19:57:02.569Z,88.60
2019-01-21T19:59:50.370Z,90.30
2019-01-21T20:02:38.234Z,93.35
2019-01-21T20:05:26.346Z,94.17
2019-01-21T20:08:14.177Z,79.87
2019-01-21T20:10:42.978Z,77.32
2019-01-21T20:13:30.749Z,100.90
2019-01-21T20:16:18.564Z,95.25
2019-01-21T20:19:06.367Z,89.03
2019-01-21T20:21:54.157Z,89.30
2019-01-21T20:24:42.078Z,102.38
2019-01-21T20:27:29.905Z,108.22
2019-01-21T20:30:17.717Z,97.12
2019-01-21T20:56:57.362Z,104.92
2019-01-21T20:59:45.407Z,99.15
2019-01-21T21:02:33.237Z,93.17
2019-01-21T21:05:21.653Z,104.27
2019-01-21T21:08:09.963Z,115.00
2019-01-21T21:10:58.129Z,97.30
2019-01-21T21:13:45.930Z,96.37
2019-01-21T21:16:33.788Z,100.60
2019-01-21T21:19:21.563Z,99.58
2019-01-21T21:22:10.017Z,95.83
2019-01-21T21:24:58.178Z,94.28
2019-01-21T21:27:47.664Z,107.95
2019-01-21T21:30:35.846Z,98.90
2019-01-21T21:42:17.496Z,95.12
2019-01-21T21:56:53.717Z,82.60
2019-01-21T22:02:47.836Z,109.92
2019-01-21T22:20:38.083Z,99.28
2019-01-21T22:29:16.642Z,93.05
2019-01-21T22:41:08.946Z,110.55
2019-01-21T22:43:50.227Z,110.80
2019-01-21T23:16:41.995Z,116.28
2019-01-21T23:25:22.105Z,104.72
